Terminal Aerodrome Forecast
Issued by NWS

Home | Current Version | Previous Version | Text Only | Print | Product List | Glossary On
Versions: 1 2 3 4 5 6 7 8 9 10 11 12 13
000
FTUS44 KTSA 042320
TAFRVS
TAF
KRVS 042320Z 0500/0524 11011KT P6SM BKN090
     FM050700 12006KT P6SM VCTS BKN050CB OVC100
      TEMPO 0508/0512 VRB15G25KT 3SM TSRA BKN025CB
     FM051200 13006KT 6SM -TSRA BKN050CB OVC100
     FM051500 17008KT P6SM SCT100 BKN250=

USA.gov is the U.S. government's official web portal to all federal, state and local government web resources and services.